CheckWX is a tool to help pilots better visualize weather data.  It is not intended as a substitute for an official pre-flight weather briefing.

06:47:22 UTC

KCLI METAR
Clintonville Municipal Airport
Clintonville, Wisconsin, USA
Current

32 mins ago

KCLI 270615Z AUTO 18004KT 10SM CLR 22/18 A2990 RMK AO2 T02200183
Observed
May-27 @ 06:15 UTC
Wind
  • 180° at 4 KTS
Visibility
Flight Rules
VFR
Cloud Levels
  • Clear skies
Temperature
22°C / 72°F
Dewpoint
18°C / 64°F
Humidity
78%
Altimeter
29.9" Hg
Pressure
1012.52 hPa
Previous

52 mins ago

KCLI 270555Z AUTO 19004KT 10SM CLR 22/19 A2990 RMK AO2 60009 T02190185 10269 20210
Observed
May-27 @ 05:55 UTC
Wind
  • 190° at 4 KTS
Visibility
Flight Rules
VFR
Cloud Levels
  • Clear skies
Temperature
22°C / 72°F
Dewpoint
18°C / 64°F
Humidity
78%
Altimeter
29.9" Hg
Pressure
1012.52 hPa
Previous

1 hour ago

KCLI 270535Z AUTO 18004KT 10SM CLR 21/19 A2991 RMK AO2 T02130185
Observed
May-27 @ 05:35 UTC
Wind
  • 180° at 4 KTS
Visibility
Flight Rules
VFR
Cloud Levels
  • Clear skies
Temperature
21°C / 70°F
Dewpoint
18°C / 64°F
Humidity
83%
Altimeter
29.91" Hg
Pressure
1012.92 hPa